Time;durP1;ratioP1;P1;durP2;ratioP2;P2;SDS_P1;SDS_P2;PMS_P1;PMS_P2;Temp;Humidity;BMP_temperature;BMP_pressure;BME280_temperature;BME280_humidity;BME280_pressure;Samples;Min_cycle;Max_cycle;Signal;HPM_P1;HPM_P2
2023/08/09 00:00:02;;;;;;;2.57;2.37;;;14.70;1.00;;;;;;5068910;28;20462;-74
2023/08/09 00:02:29;;;;;;;3.10;2.80;;;14.70;1.00;;;;;;5065767;28;20458;-70
2023/08/09 00:04:56;;;;;;;2.97;2.60;;;14.70;1.00;;;;;;5066525;28;20529;-72
2023/08/09 00:07:23;;;;;;;5.33;2.83;;;14.60;1.00;;;;;;5061421;28;20520;-72
2023/08/09 00:09:50;;;;;;;3.37;2.77;;;14.60;1.00;;;;;;5068037;28;20512;-72
2023/08/09 00:12:17;;;;;;;2.93;2.73;;;14.50;1.00;;;;;;5065266;28;20470;-72
2023/08/09 00:14:44;;;;;;;4.43;3.10;;;14.50;1.00;;;;;;5064483;28;20491;-77
2023/08/09 00:17:12;;;;;;;3.30;2.50;;;14.40;1.00;;;;;;5062960;28;20941;-74
2023/08/09 00:19:39;;;;;;;3.73;3.10;;;14.50;1.00;;;;;;5058768;28;20479;-73
2023/08/09 00:22:08;;;;;;;2.80;2.60;;;14.50;1.00;;;;;;5065530;28;20471;-74
2023/08/09 00:24:35;;;;;;;3.17;2.87;;;14.50;1.00;;;;;;5067121;28;20482;-72
2023/08/09 00:27:02;;;;;;;2.90;2.70;;;14.50;1.00;;;;;;5066341;28;20553;-72
2023/08/09 00:29:29;;;;;;;2.73;2.53;;;14.50;1.00;;;;;;5062700;28;20470;-73
2023/08/09 00:31:56;;;;;;;2.90;2.60;;;14.50;1.00;;;;;;5067721;28;20833;-70
2023/08/09 00:34:24;;;;;;;3.57;2.63;;;14.50;1.00;;;;;;5066676;28;20494;-71
2023/08/09 00:36:52;;;;;;;3.53;3.00;;;14.60;1.00;;;;;;5088951;28;20543;-72
2023/08/09 00:39:19;;;;;;;4.33;2.80;;;14.60;1.00;;;;;;5090303;28;20470;-71
2023/08/09 00:41:46;;;;;;;3.77;2.60;;;14.60;1.00;;;;;;5086656;28;20544;-71
2023/08/09 00:44:13;;;;;;;3.73;2.20;;;14.60;1.00;;;;;;5085953;28;20475;-71
2023/08/09 00:46:40;;;;;;;2.37;2.17;;;14.70;1.00;;;;;;5086262;28;20461;-74
2023/08/09 00:49:07;;;;;;;2.30;2.10;;;14.70;1.00;;;;;;5084313;28;20527;-72
2023/08/09 00:51:36;;;;;;;3.30;2.50;;;14.60;1.00;;;;;;5085345;28;20565;-72
2023/08/09 00:54:03;;;;;;;3.73;2.00;;;14.60;1.00;;;;;;5083690;28;20489;-72
2023/08/09 00:56:30;;;;;;;2.63;2.00;;;14.60;1.00;;;;;;5084773;28;20461;-72
2023/08/09 00:58:57;;;;;;;2.50;2.23;;;14.70;1.00;;;;;;5084063;28;20469;-73
2023/08/09 01:01:24;;;;;;;2.17;2.00;;;14.70;1.00;;;;;;5088479;28;20873;-71
2023/08/09 01:03:51;;;;;;;3.20;1.93;;;14.80;1.00;;;;;;5100933;22;20442;-73
2023/08/09 01:06:26;;;;;;;6.60;4.83;;;14.80;1.00;;;;;;5068183;28;20604;-77
2023/08/09 01:09:02;;;;;;;3.03;2.23;;;14.80;1.00;;;;;;5069172;28;20500;-78
2023/08/09 01:11:37;;;;;;;1.93;1.80;;;14.80;1.00;;;;;;5067934;28;20836;-78
2023/08/09 01:14:06;;;;;;;2.90;1.97;;;14.80;1.00;;;;;;5070143;28;20476;-78
2023/08/09 01:16:40;;;;;;;3.73;1.80;;;14.90;1.00;;;;;;5068730;28;20520;-76
2023/08/09 01:19:27;;;;;;;2.20;1.90;;;14.90;1.00;;;;;;5071515;28;20520;-77
2023/08/09 01:21:56;;;;;;;4.20;2.13;;;14.80;1.00;;;;;;5069765;28;20501;-76
2023/08/09 01:24:25;;;;;;;2.80;2.60;;;14.80;1.00;;;;;;5054008;28;21011;-78
2023/08/09 01:26:52;;;;;;;2.90;1.87;;;14.90;1.00;;;;;;5071894;28;20595;-77
2023/08/09 01:29:19;;;;;;;4.23;2.30;;;14.80;1.00;;;;;;5067083;28;20483;-78
2023/08/09 01:31:46;;;;;;;2.87;2.03;;;14.80;1.00;;;;;;5068554;28;20478;-78
2023/08/09 01:34:13;;;;;;;4.13;2.40;;;14.80;1.00;;;;;;5071474;28;20470;-79
2023/08/09 01:36:45;;;;;;;3.07;2.10;;;14.80;1.00;;;;;;5074675;28;21392;-78
2023/08/09 01:39:19;;;;;;;3.60;1.80;;;14.80;1.00;;;;;;5068500;28;20459;-76
2023/08/09 01:41:48;;;;;;;3.23;2.00;;;14.80;1.00;;;;;;5064578;28;20447;-78
2023/08/09 01:44:16;;;;;;;5.13;2.30;;;14.90;1.00;;;;;;5069631;28;20573;-79
2023/08/09 01:46:44;;;;;;;3.50;1.87;;;14.90;1.00;;;;;;5063361;28;20908;-78
2023/08/09 01:49:12;;;;;;;4.37;1.87;;;14.90;1.00;;;;;;5075808;28;20558;-78
2023/08/09 01:51:40;;;;;;;2.33;1.90;;;14.90;1.00;;;;;;5060445;28;20443;-78
2023/08/09 01:54:08;;;;;;;3.40;2.07;;;14.90;1.00;;;;;;5066326;28;20482;-78
2023/08/09 01:56:35;;;;;;;5.20;1.77;;;14.90;1.00;;;;;;5071763;28;20486;-76
2023/08/09 01:59:05;;;;;;;2.40;2.00;;;14.90;1.00;;;;;;5056550;28;22011;-78
2023/08/09 02:01:32;;;;;;;3.37;1.83;;;14.90;1.00;;;;;;5066519;28;21166;-78
2023/08/09 02:04:00;;;;;;;2.00;1.73;;;14.90;1.00;;;;;;5053887;28;20469;-79
2023/08/09 02:06:26;;;;;;;2.13;1.90;;;15.00;1.00;;;;;;5046030;28;20430;-77
2023/08/09 02:08:53;;;;;;;1.73;1.63;;;15.00;1.00;;;;;;5065348;28;20487;-77
2023/08/09 02:11:20;;;;;;;2.40;1.80;;;15.00;1.00;;;;;;5066759;28;20447;-77
2023/08/09 02:13:48;;;;;;;2.87;1.83;;;15.00;1.00;;;;;;5068679;28;20464;-77
2023/08/09 02:16:18;;;;;;;3.53;1.50;;;15.10;1.00;;;;;;5050155;28;20457;-78
2023/08/09 02:18:45;;;;;;;3.83;2.10;;;15.10;1.00;;;;;;5048449;28;20520;-79
2023/08/09 02:21:12;;;;;;;4.50;1.93;;;15.20;1.00;;;;;;5062810;28;20495;-78
2023/08/09 02:23:39;;;;;;;3.03;2.07;;;15.10;1.00;;;;;;5066491;28;20462;-79
2023/08/09 02:26:08;;;;;;;4.93;1.83;;;15.00;1.00;;;;;;5069225;28;20573;-79
2023/08/09 02:28:35;;;;;;;2.83;2.10;;;15.00;1.00;;;;;;5064590;28;20470;-79
2023/08/09 02:31:03;;;;;;;3.63;1.83;;;15.00;1.00;;;;;;5063095;28;20459;-80
2023/08/09 02:33:31;;;;;;;5.67;2.00;;;15.00;1.00;;;;;;5068235;28;21233;-80
2023/08/09 02:36:00;;;;;;;2.00;1.77;;;15.00;1.00;;;;;;5048099;28;20473;-80
2023/08/09 02:38:28;;;;;;;2.60;2.03;;;15.00;1.00;;;;;;5055339;28;20476;-78
2023/08/09 02:40:56;;;;;;;2.40;1.73;;;14.90;1.00;;;;;;5061588;28;20846;-79
2023/08/09 02:43:24;;;;;;;5.63;2.20;;;15.00;1.00;;;;;;5070864;28;20588;-78
2023/08/09 02:45:52;;;;;;;4.57;2.40;;;14.90;1.00;;;;;;5063444;28;21052;-77
2023/08/09 02:48:19;;;;;;;2.83;2.03;;;14.90;1.00;;;;;;5067952;28;20474;-79
2023/08/09 02:50:48;;;;;;;2.83;2.00;;;15.00;1.00;;;;;;5069313;28;20989;-79
2023/08/09 02:53:15;;;;;;;3.73;2.30;;;14.90;1.00;;;;;;5062115;28;20478;-79
2023/08/09 02:55:43;;;;;;;3.40;2.00;;;14.90;1.00;;;;;;5056879;28;20472;-78
2023/08/09 02:58:10;;;;;;;2.53;1.90;;;14.90;1.00;;;;;;5070787;28;20906;-79
2023/08/09 03:00:38;;;;;;;2.77;1.93;;;14.80;1.00;;;;;;5067746;28;20846;-78
2023/08/09 03:03:06;;;;;;;2.47;2.00;;;14.80;1.00;;;;;;5067397;28;20490;-78
2023/08/09 03:05:34;;;;;;;3.13;2.33;;;14.80;1.00;;;;;;5067911;28;20486;-78
2023/08/09 03:08:03;;;;;;;2.50;2.30;;;14.70;1.00;;;;;;5052324;28;20468;-78
2023/08/09 03:10:30;;;;;;;4.00;2.60;;;14.70;1.00;;;;;;5049258;28;20500;-77
2023/08/09 03:12:57;;;;;;;4.00;2.27;;;14.70;1.00;;;;;;5060597;28;20523;-79
2023/08/09 03:15:25;;;;;;;3.00;2.07;;;14.70;1.00;;;;;;5057894;28;22041;-79
2023/08/09 03:17:52;;;;;;;2.27;1.63;;;14.70;1.00;;;;;;5058177;28;20443;-79
2023/08/09 03:20:19;;;;;;;4.43;2.20;;;14.70;1.00;;;;;;5068908;28;20467;-79
2023/08/09 03:22:48;;;;;;;3.17;2.20;;;14.70;1.00;;;;;;5066571;28;21813;-77
2023/08/09 03:25:17;;;;;;;2.20;2.00;;;14.80;1.00;;;;;;5067737;28;20463;-76
2023/08/09 03:27:44;;;;;;;3.47;2.07;;;14.80;1.00;;;;;;5068972;28;20958;-75
2023/08/09 03:30:11;;;;;;;3.70;2.33;;;14.90;1.00;;;;;;5063756;28;20595;-76
2023/08/09 03:32:38;;;;;;;2.60;1.90;;;15.00;1.00;;;;;;5065196;28;21060;-76
2023/08/09 03:35:07;;;;;;;3.63;2.17;;;15.00;1.00;;;;;;5064696;28;20479;-75
2023/08/09 03:37:36;;;;;;;2.17;1.50;;;15.00;1.00;;;;;;5062088;28;20745;-75
2023/08/09 03:40:09;;;;;;;2.67;2.00;;;15.10;1.00;;;;;;5065596;28;20498;-75
2023/08/09 03:42:41;;;;;;;3.10;2.80;;;15.20;1.00;;;;;;5057495;28;20533;-75
2023/08/09 03:45:09;;;;;;;5.07;2.60;;;15.20;1.00;;;;;;5052574;28;20488;-75
2023/08/09 03:47:36;;;;;;;4.50;3.73;;;15.20;1.00;;;;;;5044126;28;20556;-76
2023/08/09 03:50:04;;;;;;;3.30;2.73;;;15.20;1.00;;;;;;5043843;28;20467;-75
2023/08/09 03:52:31;;;;;;;4.30;2.60;;;15.20;1.00;;;;;;5053706;28;20989;-76
2023/08/09 03:54:58;;;;;;;5.13;2.90;;;15.10;1.00;;;;;;5055647;28;20492;-75
2023/08/09 03:57:27;;;;;;;2.93;2.57;;;15.10;1.00;;;;;;5048159;28;20460;-75
2023/08/09 03:59:56;;;;;;;3.00;2.33;;;15.00;1.00;;;;;;5058288;28;20459;-76
2023/08/09 04:02:23;;;;;;;3.37;2.40;;;15.00;1.00;;;;;;5059902;28;20483;-75
2023/08/09 04:04:50;;;;;;;2.90;2.60;;;15.00;1.00;;;;;;5063006;28;20455;-75
2023/08/09 04:07:17;;;;;;;4.57;2.30;;;15.00;1.00;;;;;;5068107;28;20583;-75
2023/08/09 04:09:43;;;;;;;6.87;2.47;;;15.10;1.00;;;;;;5071132;28;20871;-75
2023/08/09 04:12:10;;;;;;;2.77;1.90;;;15.20;1.00;;;;;;5068204;28;20558;-75
2023/08/09 04:14:37;;;;;;;3.50;2.50;;;15.20;1.00;;;;;;5065651;28;20557;-76
2023/08/09 04:17:06;;;;;;;3.67;2.80;;;15.20;1.00;;;;;;5062537;28;20555;-74
2023/08/09 04:19:33;;;;;;;3.80;2.77;;;15.20;1.00;;;;;;5049200;28;20818;-75
2023/08/09 04:22:00;;;;;;;3.77;2.73;;;15.20;1.00;;;;;;5067775;28;20478;-74
2023/08/09 04:24:27;;;;;;;4.83;2.20;;;15.20;1.00;;;;;;5064491;28;20547;-76
2023/08/09 04:26:54;;;;;;;2.17;1.97;;;15.10;1.00;;;;;;5064839;28;20466;-75
2023/08/09 04:29:21;;;;;;;5.07;2.57;;;15.00;1.00;;;;;;5070291;28;20822;-74
2023/08/09 04:31:49;;;;;;;4.90;2.40;;;15.00;1.00;;;;;;5064003;28;20537;-75
2023/08/09 04:34:17;;;;;;;3.73;2.60;;;15.00;1.00;;;;;;5064325;28;20946;-75
2023/08/09 04:36:44;;;;;;;1.97;1.77;;;15.00;1.00;;;;;;5070519;28;20550;-76
2023/08/09 04:39:13;;;;;;;3.73;2.10;;;14.90;1.00;;;;;;5067349;28;20525;-73
2023/08/09 04:41:40;;;;;;;2.70;1.87;;;15.00;1.00;;;;;;5066201;28;20474;-73
2023/08/09 04:44:07;;;;;;;2.60;1.80;;;15.00;1.00;;;;;;5057044;28;20475;-73
2023/08/09 04:46:33;;;;;;;4.93;2.20;;;15.10;1.00;;;;;;5065709;28;20495;-73
2023/08/09 04:49:00;;;;;;;2.77;2.57;;;15.20;1.00;;;;;;5061652;28;20510;-73
2023/08/09 04:51:29;;;;;;;4.30;2.53;;;15.10;1.00;;;;;;5072005;28;20593;-73
2023/08/09 04:53:56;;;;;;;2.40;2.20;;;15.10;1.00;;;;;;5050066;28;20491;-76
2023/08/09 04:56:23;;;;;;;5.53;2.83;;;15.20;1.00;;;;;;5070505;28;20438;-74
2023/08/09 04:58:50;;;;;;;4.23;2.27;;;15.20;1.00;;;;;;5068261;28;20452;-73
2023/08/09 05:01:17;;;;;;;3.70;2.43;;;15.20;1.00;;;;;;5066164;28;20483;-73
2023/08/09 05:03:44;;;;;;;4.93;2.67;;;15.20;1.00;;;;;;5049775;28;20557;-74
2023/08/09 05:06:11;;;;;;;4.03;2.10;;;15.30;1.00;;;;;;5054631;28;20554;-72
2023/08/09 05:08:39;;;;;;;3.20;2.23;;;15.30;1.00;;;;;;5067200;28;20592;-73
2023/08/09 05:11:06;;;;;;;4.80;2.20;;;15.30;1.00;;;;;;5069176;28;20556;-73
2023/08/09 05:13:33;;;;;;;2.80;2.23;;;15.20;1.00;;;;;;5063860;28;20566;-73
2023/08/09 05:16:00;;;;;;;2.47;1.80;;;15.20;1.00;;;;;;5062040;28;20484;-73
2023/08/09 05:18:27;;;;;;;4.20;2.30;;;15.20;1.00;;;;;;5061568;27;20473;-73
2023/08/09 05:20:54;;;;;;;6.87;3.23;;;15.10;1.00;;;;;;5063755;28;20475;-76
2023/08/09 05:23:21;;;;;;;13.60;9.70;;;15.10;1.00;;;;;;5043767;28;20956;-74
2023/08/09 05:25:49;;;;;;;5.50;2.20;;;15.00;1.00;;;;;;5049858;28;20940;-74
2023/08/09 05:28:16;;;;;;;3.77;2.10;;;15.00;1.00;;;;;;5058304;28;20526;-75
2023/08/09 05:30:44;;;;;;;3.33;1.77;;;15.00;1.00;;;;;;5065465;28;20483;-74
2023/08/09 05:33:11;;;;;;;2.57;2.10;;;15.00;1.00;;;;;;5063406;27;20978;-75
2023/08/09 05:35:38;;;;;;;4.17;2.03;;;15.00;1.00;;;;;;5063941;28;22249;-75
2023/08/09 05:38:05;;;;;;;6.57;2.70;;;15.10;1.00;;;;;;5068555;28;20480;-75
2023/08/09 05:40:32;;;;;;;3.43;1.77;;;15.10;1.00;;;;;;5066584;28;20458;-75
2023/08/09 05:43:01;;;;;;;6.23;1.97;;;15.10;1.00;;;;;;5064783;28;20462;-75
2023/08/09 05:45:28;;;;;;;6.23;1.70;;;15.20;1.00;;;;;;5062748;28;20533;-73
2023/08/09 05:47:55;;;;;;;12.80;3.33;;;15.30;1.00;;;;;;5066061;28;20451;-73
2023/08/09 05:50:22;;;;;;;4.20;1.83;;;15.30;1.00;;;;;;5056217;28;20447;-75
2023/08/09 05:52:48;;;;;;;3.10;2.23;;;15.40;1.00;;;;;;5064773;28;20528;-74
2023/08/09 05:55:15;;;;;;;2.77;2.10;;;15.50;1.00;;;;;;5058814;28;20706;-74
2023/08/09 05:57:42;;;;;;;6.33;2.13;;;15.60;1.00;;;;;;5054988;28;20467;-75
2023/08/09 06:00:15;;;;;;;2.77;1.80;;;15.70;1.00;;;;;;5063130;28;20459;-74
2023/08/09 06:02:43;;;;;;;2.70;1.70;;;15.80;1.00;;;;;;5065250;28;21048;-75
2023/08/09 06:05:14;;;;;;;3.03;1.60;;;15.80;1.00;;;;;;5065919;28;20467;-75
2023/08/09 06:07:41;;;;;;;2.37;1.40;;;15.90;1.00;;;;;;5060586;28;20467;-74
2023/08/09 06:10:08;;;;;;;3.47;1.87;;;16.00;1.00;;;;;;5045526;28;20476;-74
2023/08/09 06:12:35;;;;;;;7.40;2.40;;;16.00;1.00;;;;;;5052224;28;20531;-75
2023/08/09 06:15:02;;;;;;;6.93;1.87;;;16.20;1.00;;;;;;5045935;28;20462;-74
2023/08/09 06:17:31;;;;;;;4.43;2.00;;;16.40;1.00;;;;;;5054910;28;20565;-73
2023/08/09 06:19:59;;;;;;;2.80;1.70;;;16.60;1.00;;;;;;5066314;28;22102;-75
2023/08/09 06:22:25;;;;;;;2.53;1.50;;;16.80;1.00;;;;;;5060334;28;20468;-74
2023/08/09 06:24:52;;;;;;;2.80;1.97;;;16.90;1.00;;;;;;5046842;28;20471;-74
2023/08/09 06:27:19;;;;;;;2.87;1.87;;;17.10;1.00;;;;;;5057046;28;20517;-74
2023/08/09 06:29:46;;;;;;;2.87;1.67;;;17.20;1.00;;;;;;5061649;28;20563;-71
2023/08/09 06:32:13;;;;;;;3.93;1.80;;;17.40;1.00;;;;;;5041404;28;20630;-72
2023/08/09 06:34:42;;;;;;;3.00;1.40;;;17.20;1.00;;;;;;5064494;28;21284;-73
2023/08/09 06:37:09;;;;;;;3.70;1.67;;;17.00;1.00;;;;;;5065570;28;20529;-72
2023/08/09 06:39:36;;;;;;;4.43;2.03;;;16.90;1.00;;;;;;5066779;28;20479;-71
2023/08/09 06:42:03;;;;;;;7.83;2.30;;;16.80;1.00;;;;;;5063737;28;22991;-74
2023/08/09 06:44:30;;;;;;;3.00;1.57;;;16.70;1.00;;;;;;5062523;28;20678;-73
2023/08/09 06:46:57;;;;;;;3.97;2.03;;;16.50;1.00;;;;;;5063517;28;20544;-72
2023/08/09 06:49:24;;;;;;;5.37;2.00;;;16.40;1.00;;;;;;5060041;28;20586;-74
2023/08/09 06:51:55;;;;;;;4.00;2.07;;;16.40;1.00;;;;;;5059799;28;20483;-70
2023/08/09 06:54:21;;;;;;;3.20;2.00;;;16.40;1.00;;;;;;5060135;28;20973;-72
2023/08/09 06:56:48;;;;;;;4.80;2.13;;;16.60;1.00;;;;;;5066962;28;20447;-73
2023/08/09 06:59:15;;;;;;;3.00;1.60;;;16.80;1.00;;;;;;5064851;28;20483;-77
2023/08/09 07:01:43;;;;;;;3.67;1.67;;;16.90;1.00;;;;;;5048511;28;21038;-73
2023/08/09 07:04:11;;;;;;;2.60;1.70;;;17.00;1.00;;;;;;5045391;28;20484;-77
2023/08/09 07:06:37;;;;;;;3.80;1.83;;;17.00;1.00;;;;;;5056964;28;20459;-76
2023/08/09 07:09:06;;;;;;;4.27;2.07;;;17.10;1.00;;;;;;5060014;28;20468;-70
2023/08/09 07:11:33;;;;;;;4.60;2.20;;;17.10;1.00;;;;;;5038059;28;21196;-72
2023/08/09 07:14:02;;;;;;;3.93;2.50;;;17.10;1.00;;;;;;5050841;28;20569;-72
2023/08/09 07:16:28;;;;;;;2.30;1.67;;;17.10;1.00;;;;;;5063842;28;21257;-74
2023/08/09 07:18:55;;;;;;;3.57;1.97;;;17.20;1.00;;;;;;5064443;28;20496;-75
2023/08/09 07:21:22;;;;;;;4.80;1.87;;;17.20;1.00;;;;;;5044791;28;20527;-75
2023/08/09 07:23:49;;;;;;;7.50;2.80;;;17.30;1.00;;;;;;5044848;28;20519;-73
2023/08/09 07:26:18;;;;;;;2.90;1.87;;;17.40;1.00;;;;;;5043142;28;20479;-73
2023/08/09 07:28:45;;;;;;;3.23;1.90;;;17.40;1.00;;;;;;5059878;28;20456;-73
2023/08/09 07:31:18;;;;;;;3.73;2.20;;;17.60;1.00;;;;;;5061690;28;20480;-73
2023/08/09 07:33:45;;;;;;;4.17;2.27;;;17.80;1.00;;;;;;5063936;28;21022;-74
2023/08/09 07:36:12;;;;;;;3.63;1.40;;;18.00;1.00;;;;;;5060958;28;20457;-74
2023/08/09 07:38:39;;;;;;;2.93;1.80;;;18.30;1.00;;;;;;5058236;28;20472;-77
2023/08/09 07:41:07;;;;;;;3.47;2.20;;;18.40;1.00;;;;;;5066960;28;21255;-71
2023/08/09 07:43:35;;;;;;;5.03;1.90;;;18.30;1.00;;;;;;5064699;28;20537;-74
2023/08/09 07:46:05;;;;;;;7.37;2.70;;;18.30;1.00;;;;;;5065548;28;21256;-75
2023/08/09 07:48:33;;;;;;;4.40;1.97;;;18.30;1.00;;;;;;5064659;28;20476;-74
2023/08/09 07:51:00;;;;;;;3.73;1.70;;;18.30;1.00;;;;;;5063436;28;21031;-72
2023/08/09 07:53:27;;;;;;;4.53;1.90;;;18.20;1.00;;;;;;5048905;28;20569;-73
2023/08/09 07:55:54;;;;;;;5.07;1.83;;;18.20;1.00;;;;;;5071265;28;20549;-72
2023/08/09 07:58:21;;;;;;;4.20;1.60;;;18.20;1.00;;;;;;5067094;28;20466;-73
2023/08/09 08:00:50;;;;;;;3.40;2.00;;;18.30;1.00;;;;;;5063866;28;20519;-72
2023/08/09 08:03:17;;;;;;;4.90;2.07;;;18.60;1.00;;;;;;5064360;28;20458;-72
2023/08/09 08:05:44;;;;;;;4.07;1.67;;;18.80;1.00;;;;;;5061579;28;20458;-72
2023/08/09 08:08:11;;;;;;;3.33;1.70;;;18.90;1.00;;;;;;5058474;28;20477;-73
2023/08/09 08:10:38;;;;;;;4.80;1.70;;;19.00;1.00;;;;;;5044021;28;20576;-75
2023/08/09 08:13:05;;;;;;;5.70;2.03;;;19.10;1.00;;;;;;5045571;28;20465;-70
2023/08/09 08:15:32;;;;;;;9.13;2.53;;;19.20;1.00;;;;;;5053778;28;20454;-72
2023/08/09 08:18:01;;;;;;;4.10;1.80;;;19.30;1.00;;;;;;5065383;28;20517;-78
2023/08/09 08:20:28;;;;;;;4.83;2.13;;;19.20;1.00;;;;;;5062513;28;20528;-76
2023/08/09 08:22:55;;;;;;;4.97;2.30;;;19.40;1.00;;;;;;5062613;28;20485;-80
2023/08/09 08:25:22;;;;;;;4.37;1.60;;;19.50;1.00;;;;;;5057996;28;20467;-78
2023/08/09 08:27:49;;;;;;;4.00;1.50;;;19.60;1.00;;;;;;5063602;28;21415;-78
2023/08/09 08:30:20;;;;;;;3.80;1.80;;;19.80;1.00;;;;;;5059118;28;20951;-75
2023/08/09 08:32:49;;;;;;;4.83;1.70;;;19.90;1.00;;;;;;5055550;28;20459;-78
2023/08/09 08:35:20;;;;;;;4.67;2.33;;;19.80;1.00;;;;;;5065361;28;21646;-77
2023/08/09 08:37:48;;;;;;;2.50;1.87;;;19.70;1.00;;;;;;5055742;28;21199;-75
2023/08/09 08:40:19;;;;;;;8.00;2.30;;;19.90;1.00;;;;;;5066642;28;20454;-79
2023/08/09 08:42:47;;;;;;;3.70;1.90;;;20.10;1.00;;;;;;5057045;28;20482;-76
2023/08/09 08:45:15;;;;;;;4.73;2.43;;;20.40;1.00;;;;;;5056396;28;20444;-77
2023/08/09 08:47:44;;;;;;;2.90;1.30;;;20.50;1.00;;;;;;5062146;28;20467;-78
2023/08/09 08:50:13;;;;;;;1.67;1.57;;;20.50;1.00;;;;;;5064653;28;20594;-79
2023/08/09 08:52:45;;;;;;;3.97;1.60;;;20.30;1.00;;;;;;5062954;28;20486;-80
2023/08/09 08:55:13;;;;;;;3.73;1.63;;;20.30;1.00;;;;;;5063180;28;20455;-79
2023/08/09 08:57:41;;;;;;;6.33;2.50;;;20.30;1.00;;;;;;5064607;28;20456;-79
2023/08/09 09:00:15;;;;;;;2.97;1.63;;;20.40;1.00;;;;;;5061696;28;20555;-78
2023/08/09 09:02:43;;;;;;;2.10;1.33;;;20.60;1.00;;;;;;5064462;28;20474;-76
2023/08/09 09:05:11;;;;;;;4.90;1.90;;;20.70;1.00;;;;;;5066770;28;20554;-78
2023/08/09 09:07:41;;;;;;;7.20;1.70;;;20.60;1.00;;;;;;5065779;28;21272;-78
2023/08/09 09:10:12;;;;;;;1.77;1.40;;;20.60;1.00;;;;;;5066363;28;20440;-79
2023/08/09 09:12:39;;;;;;;4.10;1.53;;;20.60;1.00;;;;;;5057905;28;20459;-77
2023/08/09 09:15:08;;;;;;;3.17;1.60;;;20.70;1.00;;;;;;5065304;28;20483;-79
2023/08/09 09:17:38;;;;;;;2.77;1.70;;;20.90;1.00;;;;;;5057758;28;20486;-78
2023/08/09 09:20:10;;;;;;;3.07;1.97;;;21.00;1.00;;;;;;5047595;28;20838;-79
2023/08/09 09:22:38;;;;;;;3.50;1.47;;;20.90;1.00;;;;;;5048135;28;20457;-79
2023/08/09 09:25:10;;;;;;;5.87;1.80;;;21.10;1.00;;;;;;5055679;28;20471;-78
2023/08/09 09:27:43;;;;;;;3.80;1.40;;;21.40;1.00;;;;;;5051924;28;20941;-79
2023/08/09 09:33:36;;;;;;;2.10;1.23;;;21.60;1.00;;;;;;5054498;28;20474;-79
2023/08/09 09:36:04;;;;;;;1.73;0.97;;;21.80;1.00;;;;;;5066018;28;21163;-79
2023/08/09 09:38:32;;;;;;;3.10;1.50;;;22.00;1.00;;;;;;5062285;28;20507;-78
2023/08/09 09:41:02;;;;;;;5.00;2.17;;;22.90;1.00;;;;;;5068960;28;20460;-79
2023/08/09 09:43:34;;;;;;;4.47;1.60;;;24.00;1.00;;;;;;5065112;28;20465;-77
2023/08/09 09:46:01;;;;;;;3.20;1.50;;;24.30;1.00;;;;;;5050288;28;20474;-77
2023/08/09 09:48:29;;;;;;;2.10;1.50;;;24.30;1.00;;;;;;5058261;28;21932;-78
2023/08/09 09:50:57;;;;;;;2.40;1.20;;;24.40;1.00;;;;;;5073068;28;20470;-77
2023/08/09 09:53:24;;;;;;;4.43;1.20;;;24.90;1.00;;;;;;5071283;28;20469;-78
2023/08/09 09:55:51;;;;;;;2.40;1.37;;;25.30;1.00;;;;;;5058797;28;20467;-77
2023/08/09 09:58:18;;;;;;;2.13;1.30;;;26.30;1.00;;;;;;5068207;28;20474;-75
2023/08/09 10:00:48;;;;;;;2.47;1.40;;;27.20;1.00;;;;;;5058011;28;20470;-77
2023/08/09 10:03:19;;;;;;;3.30;1.33;;;27.10;1.00;;;;;;5059663;28;20557;-78
2023/08/09 10:05:47;;;;;;;2.50;1.53;;;26.50;1.00;;;;;;5073537;28;20497;-78
2023/08/09 10:08:16;;;;;;;1.60;1.00;;;25.80;1.00;;;;;;5071845;28;20466;-78
2023/08/09 10:10:44;;;;;;;4.40;1.40;;;25.60;1.00;;;;;;5070714;28;20499;-79
2023/08/09 10:13:15;;;;;;;3.80;1.30;;;26.60;1.00;;;;;;5072680;28;20433;-78
2023/08/09 10:15:47;;;;;;;2.90;1.50;;;28.20;1.00;;;;;;5071170;28;21057;-77
2023/08/09 10:18:20;;;;;;;2.67;1.20;;;29.30;1.00;;;;;;5069905;28;20502;-78
2023/08/09 10:20:51;;;;;;;3.63;1.43;;;30.10;1.00;;;;;;5069348;28;20549;-78
2023/08/09 10:23:20;;;;;;;5.27;1.93;;;30.90;1.00;;;;;;5071547;28;20474;-78
2023/08/09 10:25:48;;;;;;;2.60;1.47;;;31.60;1.00;;;;;;5058896;28;20501;-78
2023/08/09 10:28:15;;;;;;;3.57;1.70;;;32.40;1.00;;;;;;5065256;28;20476;-79
2023/08/09 10:30:49;;;;;;;3.50;1.50;;;32.70;1.00;;;;;;5066957;28;20463;-78
2023/08/09 10:33:20;;;;;;;3.10;1.60;;;33.40;1.00;;;;;;5058802;28;20966;-77
2023/08/09 10:35:50;;;;;;;3.13;1.30;;;32.40;1.00;;;;;;5068122;28;20527;-77
2023/08/09 10:38:18;;;;;;;1.50;1.37;;;31.60;1.00;;;;;;5066615;28;20610;-76
2023/08/09 10:40:51;;;;;;;3.10;1.17;;;31.20;1.00;;;;;;5069779;28;20502;-78
2023/08/09 10:43:20;;;;;;;2.87;1.50;;;30.90;1.00;;;;;;5059905;28;20542;-78
2023/08/09 10:45:52;;;;;;;4.53;2.10;;;30.20;1.00;;;;;;5056750;28;20508;-76
2023/08/09 10:48:24;;;;;;;4.80;1.40;;;29.60;1.00;;;;;;5069602;28;20486;-78
2023/08/09 10:51:18;;;;;;;15.83;3.37;;;29.00;1.00;;;;;;5067562;28;20459;-78
2023/08/09 10:54:08;;;;;;;3.40;1.67;;;27.80;1.00;;;;;;5061670;28;20440;-78
2023/08/09 10:56:38;;;;;;;2.70;1.37;;;26.70;1.00;;;;;;5059522;28;20551;-78
2023/08/09 10:59:07;;;;;;;5.47;2.17;;;25.50;1.00;;;;;;5048123;28;21330;-76
2023/08/09 11:01:36;;;;;;;3.40;2.30;;;24.70;1.00;;;;;;5044309;28;20476;-78
2023/08/09 11:04:06;;;;;;;3.90;2.17;;;24.20;1.00;;;;;;5039543;28;20467;-77
2023/08/09 11:06:37;;;;;;;5.27;2.00;;;23.70;1.00;;;;;;5044998;28;20453;-75
2023/08/09 11:09:09;;;;;;;3.13;1.60;;;23.30;1.00;;;;;;5039946;28;20462;-76
2023/08/09 11:11:39;;;;;;;3.63;1.40;;;22.90;1.00;;;;;;5068040;28;20468;-78
2023/08/09 11:14:06;;;;;;;3.03;1.60;;;22.70;1.00;;;;;;5067153;28;20518;-76
2023/08/09 11:16:35;;;;;;;5.67;1.93;;;22.50;1.00;;;;;;5058076;28;20479;-74
2023/08/09 11:19:05;;;;;;;4.37;1.43;;;22.40;1.00;;;;;;5057474;28;20559;-77
2023/08/09 11:21:42;;;;;;;4.87;1.50;;;22.40;1.00;;;;;;5044254;28;20488;-78
2023/08/09 11:24:14;;;;;;;3.50;1.60;;;22.50;1.00;;;;;;5052935;28;20541;-80
2023/08/09 11:26:49;;;;;;;2.57;1.37;;;22.40;1.00;;;;;;5056056;28;20492;-79
2023/08/09 11:29:18;;;;;;;3.70;1.30;;;22.80;1.00;;;;;;5065799;28;20822;-80
2023/08/09 11:31:48;;;;;;;2.70;1.23;;;22.80;1.00;;;;;;5066568;28;20452;-76
2023/08/09 11:34:19;;;;;;;2.00;1.20;;;22.80;1.00;;;;;;5057757;28;20552;-79
2023/08/09 11:36:50;;;;;;;5.23;1.90;;;23.90;1.00;;;;;;5070052;28;21040;-79
2023/08/09 11:39:18;;;;;;;4.37;1.37;;;24.70;1.00;;;;;;5064683;28;20525;-80
2023/08/09 11:41:56;;;;;;;3.80;1.30;;;24.90;1.00;;;;;;5064509;28;21232;-80
2023/08/09 11:44:26;;;;;;;1.20;0.90;;;25.30;1.00;;;;;;5089570;28;20462;-79
2023/08/09 11:46:57;;;;;;;3.80;1.77;;;25.60;1.00;;;;;;5075497;28;20514;-81
2023/08/09 11:49:26;;;;;;;2.73;1.97;;;27.30;1.00;;;;;;5065607;28;20565;-77
2023/08/09 11:51:53;;;;;;;3.00;1.10;;;27.60;1.00;;;;;;5050105;28;20553;-76
2023/08/09 11:54:21;;;;;;;4.10;1.83;;;27.80;1.00;;;;;;5061438;28;20470;-77
2023/08/09 11:56:49;;;;;;;2.60;1.20;;;28.30;1.00;;;;;;5058210;28;20551;-76
2023/08/09 11:59:18;;;;;;;3.73;1.20;;;27.60;1.00;;;;;;5053386;28;20556;-77
2023/08/09 12:01:49;;;;;;;1.93;1.20;;;27.20;1.00;;;;;;5062258;28;20620;-77
2023/08/09 12:04:22;;;;;;;3.53;1.30;;;27.80;1.00;;;;;;5055464;28;20457;-80
2023/08/09 12:06:51;;;;;;;2.80;1.40;;;28.10;1.00;;;;;;5051956;28;20454;-77
2023/08/09 12:09:34;;;;;;;2.83;1.20;;;28.30;1.00;;;;;;5059191;28;20460;-78
2023/08/09 12:12:05;;;;;;;2.83;1.33;;;30.00;1.00;;;;;;5048511;28;20463;-77
2023/08/09 12:14:34;;;;;;;4.20;1.40;;;31.90;1.00;;;;;;5052654;28;20470;-79
2023/08/09 12:17:01;;;;;;;13.30;2.33;;;33.00;1.00;;;;;;5061718;28;20529;-78
2023/08/09 12:19:29;;;;;;;4.10;1.27;;;33.90;1.00;;;;;;5064907;28;20463;-79
2023/08/09 12:21:58;;;;;;;2.60;2.40;;;34.90;1.00;;;;;;5057537;28;20966;-78
2023/08/09 12:24:25;;;;;;;4.10;0.93;;;35.60;1.00;;;;;;5066913;28;20446;-77
2023/08/09 12:26:52;;;;;;;3.03;1.20;;;36.10;1.00;;;;;;5056047;28;20455;-78
2023/08/09 12:29:19;;;;;;;3.60;2.70;;;36.50;1.00;;;;;;5058837;28;20914;-78
2023/08/09 12:31:46;;;;;;;2.83;1.50;;;36.80;1.00;;;;;;5048509;28;20476;-77
2023/08/09 12:34:16;;;;;;;2.40;1.10;;;37.50;1.00;;;;;;5049449;28;20546;-79
2023/08/09 12:36:44;;;;;;;2.10;1.00;;;38.10;1.00;;;;;;5062011;28;20463;-78
2023/08/09 12:39:11;;;;;;;2.40;1.00;;;37.90;1.00;;;;;;5062125;28;20455;-76
2023/08/09 12:41:39;;;;;;;2.10;1.10;;;37.80;1.00;;;;;;5056264;28;20462;-80
2023/08/09 12:44:07;;;;;;;1.00;0.70;;;37.80;1.00;;;;;;5063738;28;20487;-78
2023/08/09 12:46:34;;;;;;;1.23;0.93;;;37.40;1.00;;;;;;5052041;28;20452;-77
2023/08/09 12:49:02;;;;;;;2.07;1.30;;;36.50;1.00;;;;;;5063624;28;20471;-75
2023/08/09 12:51:30;;;;;;;1.47;0.90;;;35.00;1.00;;;;;;5057423;28;20463;-77
2023/08/09 12:53:58;;;;;;;4.07;1.33;;;34.10;1.00;;;;;;5044770;28;20452;-78
2023/08/09 12:56:27;;;;;;;2.00;1.00;;;34.80;1.00;;;;;;5053105;28;20460;-73
2023/08/09 12:58:54;;;;;;;1.90;1.20;;;34.10;1.00;;;;;;5058098;28;20533;-75
2023/08/09 13:01:21;;;;;;;2.87;1.50;;;32.80;1.00;;;;;;5058357;28;20460;-73
2023/08/09 13:03:49;;;;;;;3.03;1.40;;;31.40;1.00;;;;;;5030181;28;20452;-74
2023/08/09 13:06:16;;;;;;;3.10;1.37;;;30.50;1.00;;;;;;5044718;28;20491;-73